CheckWX is a tool to help pilots better visualize weather data.  It is not intended as a substitute for an official pre-flight weather briefing.

18:54:23 UTC

KDTS METAR
Destin Executive Airport
Destin, Florida, USA
Current

1 hour ago

KDTS 171753Z 02004KT 10SM CLR 21/09 A2998 RMK AO2 SLP150 T02110089 10211 20144 58018
Observed
Oct-17 @ 17:53 UTC
Wind
  • 020° at 4 KTS
Visibility
10 SM
Flight Rules
VFR
Cloud Levels
  • Clear skies
Temperature
21°C / 70°F
Dewpoint
C / 48°F
Humidity
46%
Altimeter
29.98" Hg
Pressure
1015.22 hPa
Previous

2 hours ago

KDTS 171653Z 03006KT 10SM CLR 20/09 A3001 RMK AO2 SLP161 T02000089
Observed
Oct-17 @ 16:53 UTC
Wind
  • 030° at 6 KTS
Visibility
10 SM
Flight Rules
VFR
Cloud Levels
  • Clear skies
Temperature
20°C / 68°F
Dewpoint
C / 48°F
Humidity
49%
Altimeter
30.01" Hg
Pressure
1016.22 hPa
Previous

3 hours ago

KDTS 171553Z VRB06KT 10SM CLR 19/09 A3002 RMK AO2 SLP165 T01890089
Observed
Oct-17 @ 15:53 UTC
Wind
  • Variable at 6 KTS
Visibility
10 SM
Flight Rules
VFR
Cloud Levels
  • Clear skies
Temperature
19°C / 66°F
Dewpoint
C / 48°F
Humidity
52%
Altimeter
30.02" Hg
Pressure
1016.62 hPa